createdAt,value
2023-02-15T06:19:04.764Z,0.00
2023-02-15T06:29:04.651Z,0.00
2023-02-15T06:39:04.708Z,0.00
2023-02-15T06:49:04.786Z,0.00
2023-02-15T06:59:04.778Z,0.00
2023-02-15T07:09:04.797Z,0.00
2023-02-15T07:19:04.721Z,0.00
2023-02-15T07:29:04.859Z,0.00
2023-02-15T07:39:04.916Z,0.00
2023-02-15T07:49:04.813Z,0.35
2023-02-15T07:59:04.697Z,0.58
2023-02-15T08:09:04.737Z,0.46
2023-02-15T08:19:04.793Z,2.54
2023-02-15T08:29:04.764Z,6.21
2023-02-15T08:39:04.845Z,5.31
2023-02-15T08:49:05.175Z,4.98
2023-02-15T08:59:05.169Z,7.23
2023-02-15T09:09:05.224Z,8.05
2023-02-15T09:19:05.346Z,6.71
2023-02-15T09:29:05.075Z,6.71
2023-02-15T09:39:05.296Z,8.21
2023-02-15T09:49:05.249Z,9.97
2023-02-15T09:59:05.244Z,8.65
2023-02-15T10:09:05.277Z,10.63
2023-02-15T10:19:05.324Z,12.55
2023-02-15T10:29:05.336Z,12.41
2023-02-15T10:39:05.187Z,12.16
2023-02-15T10:49:05.245Z,10.52
2023-02-15T10:59:05.270Z,10.21
2023-02-15T11:09:05.513Z,8.82
2023-02-15T11:19:05.396Z,10.57
2023-02-15T11:29:05.236Z,9.40
2023-02-15T11:39:05.518Z,7.65
2023-02-15T11:49:05.336Z,9.39
2023-02-15T11:59:05.251Z,7.52
2023-02-15T12:09:05.370Z,5.82
2023-02-15T12:19:05.440Z,6.59
2023-02-15T12:29:05.410Z,5.57
2023-02-15T12:39:05.406Z,8.60
2023-02-15T12:49:05.532Z,7.44
2023-02-15T12:59:05.547Z,8.43
2023-02-15T13:09:05.501Z,7.91
2023-02-15T13:19:05.559Z,9.22
2023-02-15T13:29:05.498Z,9.44
2023-02-15T13:39:05.451Z,11.53
2023-02-15T13:49:05.611Z,8.85
2023-02-15T13:59:05.534Z,8.39
2023-02-15T14:09:05.554Z,10.40
2023-02-15T14:19:05.469Z,9.01
2023-02-15T14:29:05.404Z,10.12
2023-02-15T14:39:06.675Z,11.60
2023-02-15T14:49:05.510Z,12.23
2023-02-15T14:59:05.555Z,9.61
2023-02-15T15:09:05.484Z,9.19
2023-02-15T15:19:05.731Z,11.32
2023-02-15T15:29:05.593Z,11.65
2023-02-15T15:39:05.629Z,12.10
2023-02-15T15:49:05.762Z,10.12
2023-02-15T15:59:05.619Z,8.77
2023-02-15T16:09:05.779Z,9.08
2023-02-15T16:19:05.576Z,5.47
2023-02-15T16:29:05.603Z,6.59
2023-02-15T16:39:05.606Z,8.39
2023-02-15T16:49:05.578Z,8.09
2023-02-15T16:59:05.576Z,7.94
2023-02-15T17:09:05.710Z,7.34
2023-02-15T17:19:05.694Z,6.74
2023-02-15T17:29:05.652Z,8.59
2023-02-15T17:39:05.582Z,8.22
2023-02-15T17:49:05.616Z,8.64
2023-02-15T17:59:05.796Z,9.52
2023-02-15T18:09:05.660Z,8.05
2023-02-15T18:19:05.765Z,8.09
2023-02-15T18:29:05.745Z,8.09
2023-02-15T18:39:08.919Z,6.25
2023-02-15T18:49:05.732Z,5.43
2023-02-15T18:59:05.671Z,6.14
2023-02-15T19:09:05.815Z,5.54
2023-02-15T19:19:07.344Z,7.28
